Weather at Ross International Airport

Public forecast

Using degrees Fahrenheit for public forecast. Weather courtesy of forecast.io.

Closest aviation weather report (METAR) to Ross International Airport

Closest report is Shelby Airport, 27.8 nm (51.5 km) S.

2024/07/21 05:15 (retrieved 6 minutes ago)

KSBX 210515Z AUTO 07009KT 10SM CLR 24/12 A3029 RMK AO2

Closest aviation forecast (TAF) to Ross International Airport

Forecast is more than 12 hours old.

Closest forecast is Malmstrom Air Force Base, 95.1 nm (176.1 km) SSE.

2024/07/19 13:57 (retrieved 2 days ago)

TAF KGFA 191300Z 1913/2019 VRB06KT 9999 SKC QNH3017INS BECMG 1920/1921 35009KT 9999 FEW120 QNH3016INS TX33/1922Z TN16/2012Z